Flight APNVIP2

  • Submitted By: Krzysztof H. Blaszkow
  • Departure Airport: Dublin (EIDW)
  • Arrival Airport: Ireland West Airport Knock (EIKN)
  • Aircraft: BE58 (EJ-IAWH)
  • Flight Time: 01.02.50
  • Date Submitted: 03/26/2017
  • Status: Accepted
Flight Details
Gross Revenue:
(5 load / € 4,000.00 per unit
€ 20,000.00
Fuel Cost:
(56.2455 fuel used @ 0.45 / unit)
€ 25.31

Additional Log Information:

View Log

[16:24] - Carenado BARON B58 GOLD GREEN
[16:24] - Flight APNVIP2 is ready to depart EIDW with a final destination of EIKN.
[16:24] - Parking Brake Applied
[16:24] - Beacon Light ON
[16:24] - Wing Lights ON
[16:24] - Boarding
[16:24] - ADF1 - 284.0
[16:24] - ADF2 - 240.0
[16:24] - NAV1 - 114.90
[16:24] - NAV2 - 110.60
[16:24] - COM1 - 122.80
[16:24] - COM2 - 127.80
[16:24] - Transponder - 2000
[16:25] - Engine 1 Started
[16:25] - Engine 2 Started
[16:26] - Taxi Lights ON 3AGL
[16:26] - Parking Brake Released
[16:26] - Pushing Back from the gate
[16:28] - Taxiing to Runway
[16:33] - Landing Lights ON 3AGL
[16:33] - Strobe Lights ON 3AGL
[16:33] - Taxi Lights OFF 3AGL
[16:35] - Flaps to position 1
[16:35] - Flaps to position 0
[16:36] - Taking Off with 5 passengers on board
[16:36] - Take off at 114kts, with a pitch of 3deg and 338lbs of fuel on board
[16:36] - Wind Heading 66 | Wind Speed 13kts | Temperature 12 deg C
[16:36] - METAR Departure: EIDW 261500Z 07013KT CAVOK 10/03 Q1024 NOSIG

[16:36] - Gear up at 111AGL
[16:37] - Climbing to TOC
[16:40] - AutoPilot Engaged at 4564AGL
[16:48] - TOC reached
[16:48] - Cruise started
[16:49] - Strobe Lights OFF 12296AGL
[16:49] - Strobe Lights ON 12300AGL
[16:49] - Landing Lights OFF 12300AGL
[16:52] - NAV1 - 117.40
[17:06] - Landing Lights ON 11588AGL
[17:07] - TOD reached
[17:07] - Descending to destination
[17:13] - Landing Shortly
[17:18] - Flaps to position 1 at 3264ft and 123kts
[17:20] - Gear down at 2855AGL
[17:21] - AutoPilot Disengaged at 2878AGL
[17:24] - Flaps to position 2 at 1201ft and 118kts
[17:25] - Landed at -116fpm. With 220lbs of fuel onboard and a pitch angle of 1deg.
[17:25] - Wind Heading 78 | Wind Speed 11kts | Temperature 14 deg C
[17:25] - METAR Arrival: EIKN 261600Z 10010KT 060V130 CAVOK 15/01 Q1022 NOSIG

[17:25] - Flaps to position 1
[17:25] - Flaps to position 0
[17:25] - Taxiing to Gate
[17:26] - Landing Lights OFF 3AGL
[17:26] - Strobe Lights OFF 3AGL
[17:26] - Taxi Lights ON 3AGL
[17:27] - Parking Brake Applied
[17:27] - Arrived safely at EIKN. We hope you enjoyed your flight!
[17:27] - Engine 1 Stopped
[17:27] - Engine 2 Stopped
[17:27] - Taxi Lights OFF 3AGL
[17:28] - Carenado BARON B58 GOLD GREEN
[17:28] - MaxSim Rate: 1x
[17:28] - SiouxAcars ver: 1.0.1.2

Route Map